Pagrindinis puslapis
METAR-TAF:

METAR-TAF

Oro uostai :

Danango tarptautinis oro uostas

Danangas, Vietnamas

platuma: 16-02N, ilguma: 108-11E, Aukštis: 7 m

Dabartinis oras

Ataskaita buvo paskelbta 10 minutes, ne 19:30 UTC
Vėjas 4 kt iš Šiaurės
Temperatūra 25°C
Drėgmė 89%
Slėgis 1014 hPa
Matomumas: 8000 m
Išsisklaidę debesys ne aukštis 1300 ft

METAR: VVDN 251930Z 35004KT 8000 SCT013 25/23 Q1014 NOSIG

Laikas: 02:40 (19:40 UTC)

Prognozė

Ataskaita buvo paskelbta 2 valandos ir 40 minutes, ne 17:00 UTC
Prognozė galioja nuo 25 metu 18 UTC su 26 metu 18 UTC
Vėjas 6 kt iš Šiaurės Vakarų
Matomumas: 8000 m
Išsisklaidę debesys ne aukštis 1300 ft
Išsisklaidę debesys ne aukštis 6000 ft
Laikinai
nuo 25 metu 18 UTC su 26 metu 01 UTC
Matomumas: 4000 m
lietus

TAF: VVDN 251700Z 2518/2618 32006KT 8000 SCT013 SCT060 TEMPO 2518/2601 4000 RA

Orai ataskaitas ir orų prognozės (METAR, TAF).

turimą stotys yra geltonos ir raudonos taškus žemėlapyje.

Perkelti pele per norėdami pamatyti stoties vardą.

Tada spustelėkite, norėdami matyti oro stebėjimo ir prognozės.

Norėdami pakeisti žemėlapį: spustelėkite ant žalios mygtukų su juodo kryžiaus žemyn,; žalią mygtuką su brūkšneliu, jei norite nutolinti; arba žalių rodyklių gretimoms žemėlapius.


METAR-TAF: